createdAt,value
2023-01-19T04:10:57.092Z,78.29
2023-01-19T04:13:30.623Z,74.16
2023-01-19T04:16:07.847Z,73.67
2023-01-19T04:18:35.910Z,74.18
2023-01-19T04:21:11.388Z,74.71
2023-01-19T04:23:53.135Z,74.25
2023-01-19T04:27:14.430Z,72.44
2023-01-19T04:30:32.411Z,71.94
2023-01-19T04:33:09.205Z,72.98
2023-01-19T04:35:39.480Z,72.86
2023-01-19T04:38:15.491Z,73.49
2023-01-19T04:41:23.446Z,73.29
2023-01-19T04:43:56.259Z,71.74
2023-01-19T04:46:23.968Z,70.71
2023-01-19T04:49:00.419Z,71.30
2023-01-19T04:52:08.451Z,72.07
2023-01-19T04:55:29.534Z,73.26
2023-01-19T04:58:08.420Z,70.84
2023-01-19T05:00:39.228Z,70.02
2023-01-19T05:03:25.801Z,70.56
2023-01-19T05:06:02.994Z,69.86
2023-01-19T05:08:37.559Z,70.95
2023-01-19T05:11:15.310Z,72.00
2023-01-19T05:14:04.356Z,71.18
2023-01-19T05:16:31.753Z,69.69
2023-01-19T05:18:59.270Z,69.65
2023-01-19T05:21:47.727Z,70.05
2023-01-19T05:24:19.372Z,70.92
2023-01-19T05:26:49.800Z,72.26
2023-01-19T05:29:25.083Z,71.46
2023-01-19T05:31:58.677Z,69.81
2023-01-19T05:34:52.233Z,69.36
2023-01-19T05:37:24.892Z,69.38
2023-01-19T05:40:07.171Z,69.71
2023-01-19T05:42:42.564Z,70.69
2023-01-19T05:45:12.543Z,70.52
2023-01-19T05:47:40.021Z,69.15
2023-01-19T05:50:19.440Z,68.51
2023-01-19T05:52:46.670Z,68.60
2023-01-19T05:55:15.525Z,69.53
2023-01-19T05:57:45.601Z,69.73
2023-01-19T06:00:16.952Z,70.86
2023-01-19T06:02:44.673Z,70.69
2023-01-19T06:05:20.937Z,69.54
2023-01-19T06:07:51.280Z,68.95
2023-01-19T06:10:21.146Z,68.75
2023-01-19T06:13:09.476Z,69.78
2023-01-19T06:15:43.257Z,70.52
2023-01-19T06:18:18.929Z,71.16
2023-01-19T06:21:00.284Z,70.57
2023-01-19T06:23:39.030Z,68.76
2023-01-19T06:26:15.182Z,68.01
2023-01-19T06:28:42.869Z,68.22
2023-01-19T06:31:13.422Z,68.83
2023-01-19T06:33:40.766Z,69.58
2023-01-19T06:36:22.151Z,70.44
2023-01-19T06:38:59.103Z,69.97
2023-01-19T06:41:29.978Z,68.66
2023-01-19T06:44:00.449Z,68.10
2023-01-19T06:46:27.937Z,68.11
2023-01-19T06:49:05.694Z,68.62
2023-01-19T06:51:41.458Z,69.03
2023-01-19T06:54:09.349Z,69.42
2023-01-19T06:56:45.887Z,69.61
2023-01-19T06:59:16.743Z,68.47
2023-01-19T07:01:43.946Z,67.09
2023-01-19T07:04:15.417Z,66.58
2023-01-19T07:06:42.903Z,66.48
2023-01-19T07:09:14.630Z,66.58
2023-01-19T07:11:54.677Z,67.37
2023-01-19T07:14:25.751Z,67.42
2023-01-19T07:16:59.482Z,65.74
2023-01-19T07:19:29.325Z,65.26
2023-01-19T07:21:57.941Z,65.34
2023-01-19T07:24:33.885Z,65.72
2023-01-19T07:27:04.722Z,66.01
2023-01-19T07:29:39.754Z,66.41
2023-01-19T07:32:07.625Z,67.04
2023-01-19T07:34:37.265Z,67.12
2023-01-19T07:37:04.569Z,66.13
2023-01-19T07:39:36.751Z,65.62
2023-01-19T07:42:10.161Z,66.00
2023-01-19T07:44:43.689Z,66.68
2023-01-19T07:47:18.575Z,67.39
2023-01-19T07:49:58.190Z,68.14
2023-01-19T07:52:25.443Z,67.75
2023-01-19T07:55:03.717Z,66.19
2023-01-19T07:57:46.279Z,65.71
2023-01-19T08:00:46.484Z,65.52
2023-01-19T08:03:23.905Z,66.17
2023-01-19T08:05:57.128Z,67.09
2023-01-19T08:08:50.477Z,68.19
2023-01-19T08:11:38.038Z,67.44
2023-01-19T08:14:21.434Z,66.08
2023-01-19T08:17:19.517Z,65.74
2023-01-19T08:19:51.919Z,66.01
2023-01-19T08:22:19.306Z,66.46
2023-01-19T08:24:50.541Z,66.99
2023-01-19T08:27:20.351Z,67.32
2023-01-19T08:29:49.782Z,67.20
2023-01-19T08:32:19.410Z,65.93
2023-01-19T08:34:52.582Z,65.38
2023-01-19T08:37:19.774Z,65.55
2023-01-19T08:39:47.208Z,66.54
2023-01-19T08:42:20.259Z,67.47
2023-01-19T08:44:57.508Z,68.69
2023-01-19T08:47:25.156Z,68.30
2023-01-19T08:49:52.323Z,67.07
2023-01-19T08:52:19.781Z,66.00
2023-01-19T08:54:50.013Z,66.01
2023-01-19T08:57:17.292Z,66.51
2023-01-19T08:59:47.393Z,67.19
2023-01-19T09:02:14.586Z,67.53
2023-01-19T09:04:50.432Z,67.64
2023-01-19T09:07:18.645Z,66.21
2023-01-19T09:09:46.507Z,65.44
2023-01-19T09:12:13.618Z,65.39
2023-01-19T09:14:41.016Z,65.49
2023-01-19T09:17:08.431Z,65.91
2023-01-19T09:19:35.776Z,66.64
2023-01-19T09:22:02.948Z,66.95
2023-01-19T09:24:30.362Z,65.35
2023-01-19T09:26:57.498Z,64.51
2023-01-19T09:29:27.741Z,64.24
2023-01-19T09:31:55.333Z,64.96
2023-01-19T09:34:23.212Z,65.18
2023-01-19T09:36:51.023Z,65.95
2023-01-19T09:39:18.891Z,66.14
2023-01-19T09:42:01.604Z,65.03
2023-01-19T09:44:29.779Z,64.50
2023-01-19T09:46:59.199Z,64.58
2023-01-19T09:49:31.405Z,64.78
2023-01-19T09:51:58.699Z,65.41
2023-01-19T09:54:41.133Z,65.87
2023-01-19T09:57:12.034Z,65.80
2023-01-19T09:59:39.885Z,64.36
2023-01-19T10:02:36.447Z,63.82
2023-01-19T13:13:31.077Z,77.86
2023-01-19T13:16:20.812Z,73.47
2023-01-19T13:19:03.961Z,70.01
2023-01-19T13:21:35.824Z,68.16
2023-01-19T13:24:04.500Z,68.49
2023-01-19T13:26:39.299Z,69.67
2023-01-19T13:29:33.873Z,70.47
2023-01-19T13:32:06.510Z,68.76
2023-01-19T13:34:41.222Z,67.91
2023-01-19T13:37:16.550Z,66.87
2023-01-19T13:39:46.358Z,67.09
2023-01-19T13:42:28.460Z,67.44
2023-01-19T13:44:58.256Z,67.93
2023-01-19T13:47:39.569Z,68.57
2023-01-19T13:50:07.640Z,68.35
2023-01-19T13:52:42.461Z,66.67
2023-01-19T13:55:13.929Z,66.33
2023-01-19T13:57:42.396Z,66.28
2023-01-19T14:00:12.074Z,67.07
2023-01-19T14:03:21.305Z,67.62
2023-01-19T14:05:50.614Z,68.22
2023-01-19T14:08:27.269Z,67.80
2023-01-19T14:10:56.356Z,66.07
2023-01-19T14:13:34.562Z,64.86
2023-01-19T14:16:11.657Z,64.41
2023-01-19T14:18:38.918Z,64.59
2023-01-19T14:21:15.235Z,65.00
2023-01-19T14:24:02.414Z,65.71
2023-01-19T14:26:53.160Z,65.59
2023-01-19T14:29:31.820Z,64.36
2023-01-19T14:32:14.875Z,64.10
2023-01-19T14:35:04.490Z,64.50
2023-01-19T14:37:34.269Z,65.07
2023-01-19T14:40:15.710Z,65.31
2023-01-19T14:42:47.610Z,66.26
2023-01-19T14:45:17.639Z,66.04
2023-01-19T14:47:45.550Z,64.64
2023-01-19T14:50:20.728Z,64.76
2023-01-19T14:53:01.040Z,65.11
2023-01-19T14:55:36.762Z,65.56
2023-01-19T14:58:15.326Z,66.04
2023-01-19T15:00:46.202Z,66.89
2023-01-19T15:03:13.563Z,66.84
2023-01-19T15:05:45.308Z,65.76
2023-01-19T15:08:39.085Z,65.33
2023-01-19T15:11:23.681Z,64.96
2023-01-19T15:13:51.018Z,65.59
2023-01-19T15:16:18.319Z,66.18
2023-01-19T15:18:51.008Z,67.12
2023-01-19T15:21:26.929Z,67.28
2023-01-19T15:23:54.745Z,65.97
2023-01-19T15:26:23.899Z,65.95
2023-01-19T15:28:51.542Z,66.11
2023-01-19T15:31:28.504Z,66.36
2023-01-19T15:34:05.167Z,66.89
2023-01-19T15:36:39.811Z,67.76
2023-01-19T15:39:16.804Z,67.54
2023-01-19T15:41:44.309Z,66.26
2023-01-19T15:44:11.366Z,65.83
2023-01-19T15:46:47.463Z,66.07
2023-01-19T15:49:26.390Z,66.02
2023-01-19T15:51:53.444Z,66.82
2023-01-19T15:54:20.767Z,67.49
2023-01-19T15:56:52.651Z,67.43
2023-01-19T15:59:28.944Z,66.50
2023-01-19T16:01:59.420Z,65.97
2023-01-19T16:04:26.684Z,65.82
2023-01-19T16:06:53.765Z,66.41
2023-01-19T16:09:20.807Z,67.33
2023-01-19T16:11:50.485Z,68.17
2023-01-19T16:14:17.822Z,68.21
2023-01-19T16:16:46.208Z,67.01
2023-01-19T16:19:16.608Z,66.18
2023-01-19T16:21:49.158Z,66.26
2023-01-19T16:24:19.806Z,67.21
2023-01-19T16:26:46.856Z,68.36
2023-01-19T16:29:16.752Z,69.23
2023-01-19T16:31:45.496Z,68.64
2023-01-19T16:34:15.680Z,67.45
2023-01-19T16:36:46.101Z,66.73
2023-01-19T16:39:17.148Z,66.63
2023-01-19T16:41:46.069Z,67.18
2023-01-19T16:44:15.889Z,67.77
2023-01-19T16:46:44.535Z,68.59
2023-01-19T16:49:15.296Z,68.29
2023-01-19T16:51:42.929Z,67.20
2023-01-19T16:54:17.269Z,66.86
2023-01-19T16:56:44.364Z,66.66
2023-01-19T16:59:12.795Z,66.94
2023-01-19T17:01:44.894Z,67.71
2023-01-19T17:04:14.814Z,68.69
2023-01-19T17:06:41.875Z,67.93
2023-01-19T17:09:12.333Z,66.75
2023-01-19T17:11:44.338Z,66.25
2023-01-19T17:14:20.586Z,66.69
2023-01-19T17:16:47.928Z,66.96
2023-01-19T17:19:20.368Z,67.66
2023-01-19T17:21:54.296Z,68.36
2023-01-19T17:24:24.077Z,68.04
2023-01-19T17:26:51.041Z,66.91
2023-01-19T17:29:18.721Z,66.71
2023-01-19T17:31:46.860Z,66.87
2023-01-19T17:34:14.021Z,67.45
2023-01-19T17:36:41.254Z,68.10
2023-01-19T17:39:11.394Z,68.64
2023-01-19T17:41:47.844Z,68.50
2023-01-19T17:44:28.991Z,67.11
2023-01-19T17:46:58.035Z,66.55
2023-01-19T17:49:26.919Z,66.71
2023-01-19T17:51:55.836Z,67.53
2023-01-19T17:54:22.961Z,68.54
2023-01-19T17:56:51.032Z,69.15
2023-01-19T17:59:18.245Z,69.18
2023-01-19T18:01:47.983Z,67.83
2023-01-19T18:04:15.247Z,67.56
2023-01-19T18:06:51.560Z,67.58
2023-01-19T18:09:18.973Z,67.75
2023-01-19T18:11:46.152Z,68.46
2023-01-19T18:14:13.693Z,68.91
2023-01-19T18:16:40.796Z,69.06
2023-01-19T18:19:10.159Z,67.64
2023-01-19T18:21:39.295Z,67.20
2023-01-19T18:24:09.936Z,67.41
2023-01-19T18:26:38.158Z,67.82
2023-01-19T18:29:08.853Z,67.80
2023-01-19T18:31:36.346Z,68.60
2023-01-19T18:34:06.735Z,68.59
2023-01-19T18:36:34.430Z,67.10
2023-01-19T18:39:04.943Z,66.36
2023-01-19T18:41:40.814Z,66.14
2023-01-19T18:44:11.421Z,66.62
2023-01-19T18:46:41.121Z,67.32
2023-01-19T18:49:17.594Z,68.08
2023-01-19T18:51:52.724Z,68.61
2023-01-19T18:54:20.193Z,67.26
2023-01-19T18:56:50.183Z,66.72
2023-01-19T18:59:17.660Z,67.03
2023-01-19T19:01:55.758Z,67.38
2023-01-19T19:04:22.810Z,68.37
2023-01-19T19:06:50.166Z,68.87
2023-01-19T19:09:20.561Z,67.63
2023-01-19T21:59:20.217Z,88.53
2023-01-19T22:01:50.509Z,83.84
2023-01-19T22:04:20.084Z,79.93
2023-01-19T22:06:47.346Z,77.20
2023-01-19T22:09:14.779Z,75.49
2023-01-19T22:12:00.604Z,74.57
2023-01-19T22:14:34.175Z,74.11
2023-01-19T22:17:01.457Z,74.06
2023-01-19T22:19:31.374Z,73.30
2023-01-19T22:22:03.876Z,71.73
2023-01-19T22:24:35.915Z,71.25
2023-01-19T22:27:08.920Z,71.52
2023-01-19T22:29:41.587Z,71.72
2023-01-19T22:32:09.124Z,72.49
2023-01-19T22:34:36.584Z,72.10
2023-01-19T22:37:06.504Z,71.01
2023-01-19T22:39:38.892Z,70.11
2023-01-19T22:42:11.034Z,69.95
2023-01-19T22:45:01.347Z,70.32
2023-01-19T22:47:39.670Z,70.69
2023-01-19T22:50:08.144Z,70.60
2023-01-19T22:52:35.468Z,69.16
2023-01-19T22:55:02.890Z,68.41
2023-01-19T22:57:38.362Z,68.29
2023-01-19T23:00:10.690Z,68.39
2023-01-19T23:02:37.687Z,69.04
2023-01-19T23:05:10.997Z,69.85
2023-01-19T23:07:40.405Z,70.31
2023-01-19T23:10:08.819Z,69.10
2023-01-19T23:12:36.728Z,68.82
2023-01-19T23:15:06.785Z,68.76
2023-01-19T23:17:36.037Z,68.85
2023-01-19T23:20:05.046Z,69.48
2023-01-19T23:22:32.799Z,69.12
2023-01-19T23:24:59.772Z,68.29
2023-01-19T23:27:27.299Z,67.69
2023-01-19T23:29:54.620Z,67.57
2023-01-19T23:32:24.075Z,67.60
2023-01-19T23:34:56.988Z,67.66
2023-01-19T23:37:24.195Z,68.10
2023-01-19T23:40:13.670Z,67.92
2023-01-19T23:42:40.856Z,66.28
2023-01-19T23:45:08.744Z,65.91
2023-01-19T23:47:46.460Z,66.26
2023-01-19T23:50:13.964Z,66.66
2023-01-19T23:52:41.020Z,66.79
2023-01-19T23:55:12.170Z,67.68
2023-01-19T23:57:50.158Z,67.58
